sensor_id;sensor_type;location;lat;lon;timestamp;P1;durP1;ratioP1;P2;durP2;ratioP2
22770;SDS011;11552;50.786;4.332;2022-09-29T00:01:55;11.25;;;8.63;;
22770;SDS011;11552;50.786;4.332;2022-09-29T00:04:20;11.98;;;8.48;;
22770;SDS011;11552;50.786;4.332;2022-09-29T00:06:46;12.75;;;8.70;;
22770;SDS011;11552;50.786;4.332;2022-09-29T00:09:11;11.48;;;8.32;;
22770;SDS011;11552;50.786;4.332;2022-09-29T00:11:37;11.85;;;8.70;;
22770;SDS011;11552;50.786;4.332;2022-09-29T00:14:03;14.82;;;8.68;;
22770;SDS011;11552;50.786;4.332;2022-09-29T00:16:29;11.80;;;9.23;;
22770;SDS011;11552;50.786;4.332;2022-09-29T00:18:55;14.18;;;9.90;;
22770;SDS011;11552;50.786;4.332;2022-09-29T00:21:21;10.48;;;8.50;;
22770;SDS011;11552;50.786;4.332;2022-09-29T00:23:48;12.20;;;8.88;;
22770;SDS011;11552;50.786;4.332;2022-09-29T00:26:18;13.52;;;9.00;;
22770;SDS011;11552;50.786;4.332;2022-09-29T00:28:48;11.35;;;8.55;;
22770;SDS011;11552;50.786;4.332;2022-09-29T00:31:22;9.25;;;8.32;;
22770;SDS011;11552;50.786;4.332;2022-09-29T00:33:51;11.35;;;9.13;;
22770;SDS011;11552;50.786;4.332;2022-09-29T00:36:19;15.05;;;9.18;;
22770;SDS011;11552;50.786;4.332;2022-09-29T00:38:46;13.20;;;9.27;;
22770;SDS011;11552;50.786;4.332;2022-09-29T00:41:15;10.50;;;8.90;;
22770;SDS011;11552;50.786;4.332;2022-09-29T00:46:19;14.75;;;9.10;;
22770;SDS011;11552;50.786;4.332;2022-09-29T00:48:54;11.85;;;8.50;;
22770;SDS011;11552;50.786;4.332;2022-09-29T00:51:26;12.77;;;9.13;;
22770;SDS011;11552;50.786;4.332;2022-09-29T00:53:54;12.63;;;8.98;;
22770;SDS011;11552;50.786;4.332;2022-09-29T00:56:21;12.93;;;8.85;;
22770;SDS011;11552;50.786;4.332;2022-09-29T00:58:51;10.95;;;8.90;;
22770;SDS011;11552;50.786;4.332;2022-09-29T01:01:21;11.35;;;8.15;;
22770;SDS011;11552;50.786;4.332;2022-09-29T01:03:49;12.30;;;8.45;;
22770;SDS011;11552;50.786;4.332;2022-09-29T01:06:54;10.50;;;8.70;;
22770;SDS011;11552;50.786;4.332;2022-09-29T01:09:15;10.18;;;8.30;;
22770;SDS011;11552;50.786;4.332;2022-09-29T01:11:43;10.25;;;8.57;;
22770;SDS011;11552;50.786;4.332;2022-09-29T01:14:10;11.73;;;8.73;;
22770;SDS011;11552;50.786;4.332;2022-09-29T01:16:36;11.80;;;8.55;;
22770;SDS011;11552;50.786;4.332;2022-09-29T01:19:08;11.88;;;8.57;;
22770;SDS011;11552;50.786;4.332;2022-09-29T01:40:30;10.82;;;8.60;;
22770;SDS011;11552;50.786;4.332;2022-09-29T01:45:32;10.00;;;8.43;;
22770;SDS011;11552;50.786;4.332;2022-09-29T01:48:05;14.43;;;8.40;;
22770;SDS011;11552;50.786;4.332;2022-09-29T01:50:39;11.57;;;7.65;;
22770;SDS011;11552;50.786;4.332;2022-09-29T01:53:10;11.15;;;8.60;;
22770;SDS011;11552;50.786;4.332;2022-09-29T01:55:48;12.65;;;8.32;;
22770;SDS011;11552;50.786;4.332;2022-09-29T01:58:24;12.07;;;8.60;;
22770;SDS011;11552;50.786;4.332;2022-09-29T02:00:57;10.90;;;8.05;;
22770;SDS011;11552;50.786;4.332;2022-09-29T02:03:36;9.32;;;7.95;;
22770;SDS011;11552;50.786;4.332;2022-09-29T02:06:16;15.18;;;8.32;;
22770;SDS011;11552;50.786;4.332;2022-09-29T02:11:17;9.75;;;7.90;;
22770;SDS011;11552;50.786;4.332;2022-09-29T02:13:48;14.07;;;8.43;;
22770;SDS011;11552;50.786;4.332;2022-09-29T02:16:16;10.52;;;7.47;;
22770;SDS011;11552;50.786;4.332;2022-09-29T02:18:56;8.80;;;7.70;;
22770;SDS011;11552;50.786;4.332;2022-09-29T02:21:34;11.43;;;8.40;;
22770;SDS011;11552;50.786;4.332;2022-09-29T02:24:00;14.30;;;9.75;;
22770;SDS011;11552;50.786;4.332;2022-09-29T02:26:27;13.50;;;9.20;;
22770;SDS011;11552;50.786;4.332;2022-09-29T02:28:57;11.82;;;9.00;;
22770;SDS011;11552;50.786;4.332;2022-09-29T02:31:25;17.10;;;8.82;;
22770;SDS011;11552;50.786;4.332;2022-09-29T02:33:51;13.60;;;8.95;;
22770;SDS011;11552;50.786;4.332;2022-09-29T02:36:27;10.60;;;7.85;;
22770;SDS011;11552;50.786;4.332;2022-09-29T02:39:11;12.18;;;8.10;;
22770;SDS011;11552;50.786;4.332;2022-09-29T02:44:34;10.27;;;7.65;;
22770;SDS011;11552;50.786;4.332;2022-09-29T02:49:45;12.02;;;8.18;;
22770;SDS011;11552;50.786;4.332;2022-09-29T02:57:58;11.90;;;8.13;;
22770;SDS011;11552;50.786;4.332;2022-09-29T03:00:39;14.73;;;7.78;;
22770;SDS011;11552;50.786;4.332;2022-09-29T03:03:06;12.40;;;8.35;;
22770;SDS011;11552;50.786;4.332;2022-09-29T03:05:32;12.15;;;8.10;;
22770;SDS011;11552;50.786;4.332;2022-09-29T03:07:58;12.48;;;8.57;;
22770;SDS011;11552;50.786;4.332;2022-09-29T03:10:23;11.55;;;7.63;;
22770;SDS011;11552;50.786;4.332;2022-09-29T03:12:49;11.45;;;8.23;;
22770;SDS011;11552;50.786;4.332;2022-09-29T03:15:14;10.57;;;7.78;;
22770;SDS011;11552;50.786;4.332;2022-09-29T03:17:41;11.05;;;7.50;;
22770;SDS011;11552;50.786;4.332;2022-09-29T03:20:06;12.30;;;8.02;;
22770;SDS011;11552;50.786;4.332;2022-09-29T03:22:33;9.48;;;7.60;;
22770;SDS011;11552;50.786;4.332;2022-09-29T03:24:58;14.85;;;8.20;;
22770;SDS011;11552;50.786;4.332;2022-09-29T03:27:24;10.95;;;8.23;;
22770;SDS011;11552;50.786;4.332;2022-09-29T03:29:50;12.57;;;7.88;;
22770;SDS011;11552;50.786;4.332;2022-09-29T03:32:16;10.48;;;7.85;;
22770;SDS011;11552;50.786;4.332;2022-09-29T03:34:41;14.70;;;8.52;;
22770;SDS011;11552;50.786;4.332;2022-09-29T03:37:07;13.10;;;8.25;;
22770;SDS011;11552;50.786;4.332;2022-09-29T03:39:33;11.63;;;8.02;;
22770;SDS011;11552;50.786;4.332;2022-09-29T03:41:59;11.70;;;7.90;;
22770;SDS011;11552;50.786;4.332;2022-09-29T03:44:24;16.02;;;8.30;;
22770;SDS011;11552;50.786;4.332;2022-09-29T03:46:50;10.02;;;8.07;;
22770;SDS011;11552;50.786;4.332;2022-09-29T03:49:15;12.98;;;8.52;;
22770;SDS011;11552;50.786;4.332;2022-09-29T03:51:42;15.88;;;8.82;;
22770;SDS011;11552;50.786;4.332;2022-09-29T03:54:08;11.85;;;8.85;;
22770;SDS011;11552;50.786;4.332;2022-09-29T03:56:34;10.80;;;7.80;;
22770;SDS011;11552;50.786;4.332;2022-09-29T03:59:00;10.52;;;7.65;;
22770;SDS011;11552;50.786;4.332;2022-09-29T04:01:27;11.18;;;7.80;;
22770;SDS011;11552;50.786;4.332;2022-09-29T04:03:53;11.75;;;8.38;;
22770;SDS011;11552;50.786;4.332;2022-09-29T04:06:19;13.20;;;9.10;;
22770;SDS011;11552;50.786;4.332;2022-09-29T04:08:44;10.43;;;8.50;;
22770;SDS011;11552;50.786;4.332;2022-09-29T04:11:10;12.30;;;8.43;;
22770;SDS011;11552;50.786;4.332;2022-09-29T04:13:35;12.30;;;8.48;;
22770;SDS011;11552;50.786;4.332;2022-09-29T04:16:02;13.13;;;8.43;;
22770;SDS011;11552;50.786;4.332;2022-09-29T04:18:29;15.57;;;8.15;;
22770;SDS011;11552;50.786;4.332;2022-09-29T04:20:55;12.68;;;8.02;;
22770;SDS011;11552;50.786;4.332;2022-09-29T04:23:24;10.15;;;8.75;;
22770;SDS011;11552;50.786;4.332;2022-09-29T04:25:50;14.70;;;9.50;;
22770;SDS011;11552;50.786;4.332;2022-09-29T04:28:16;10.18;;;8.05;;
22770;SDS011;11552;50.786;4.332;2022-09-29T04:30:42;13.13;;;8.60;;
22770;SDS011;11552;50.786;4.332;2022-09-29T04:33:07;13.70;;;9.10;;
22770;SDS011;11552;50.786;4.332;2022-09-29T04:35:34;13.23;;;8.93;;
22770;SDS011;11552;50.786;4.332;2022-09-29T04:37:59;12.68;;;8.88;;
22770;SDS011;11552;50.786;4.332;2022-09-29T04:40:25;13.05;;;8.40;;
22770;SDS011;11552;50.786;4.332;2022-09-29T04:42:52;15.15;;;8.48;;
22770;SDS011;11552;50.786;4.332;2022-09-29T04:45:17;14.75;;;8.98;;
22770;SDS011;11552;50.786;4.332;2022-09-29T04:47:43;12.82;;;8.13;;
22770;SDS011;11552;50.786;4.332;2022-09-29T04:50:09;11.40;;;8.63;;
22770;SDS011;11552;50.786;4.332;2022-09-29T04:52:35;12.15;;;8.93;;
22770;SDS011;11552;50.786;4.332;2022-09-29T04:55:01;13.88;;;8.82;;
22770;SDS011;11552;50.786;4.332;2022-09-29T04:57:28;12.23;;;9.20;;
22770;SDS011;11552;50.786;4.332;2022-09-29T04:59:54;13.50;;;9.35;;
22770;SDS011;11552;50.786;4.332;2022-09-29T05:02:20;13.07;;;8.15;;
22770;SDS011;11552;50.786;4.332;2022-09-29T05:04:46;12.73;;;8.35;;
22770;SDS011;11552;50.786;4.332;2022-09-29T05:07:13;13.07;;;8.55;;
22770;SDS011;11552;50.786;4.332;2022-09-29T05:09:39;13.10;;;8.75;;
22770;SDS011;11552;50.786;4.332;2022-09-29T05:12:04;13.80;;;8.82;;
22770;SDS011;11552;50.786;4.332;2022-09-29T05:14:30;14.35;;;9.65;;
22770;SDS011;11552;50.786;4.332;2022-09-29T05:16:56;13.98;;;9.02;;
22770;SDS011;11552;50.786;4.332;2022-09-29T05:19:22;23.65;;;10.60;;
22770;SDS011;11552;50.786;4.332;2022-09-29T05:21:48;12.68;;;9.48;;
22770;SDS011;11552;50.786;4.332;2022-09-29T05:24:14;13.82;;;9.80;;
22770;SDS011;11552;50.786;4.332;2022-09-29T05:26:40;13.05;;;9.40;;
22770;SDS011;11552;50.786;4.332;2022-09-29T05:29:05;20.42;;;10.40;;
22770;SDS011;11552;50.786;4.332;2022-09-29T05:31:31;17.75;;;10.52;;
22770;SDS011;11552;50.786;4.332;2022-09-29T05:33:57;13.95;;;9.73;;
22770;SDS011;11552;50.786;4.332;2022-09-29T05:36:22;15.52;;;10.00;;
22770;SDS011;11552;50.786;4.332;2022-09-29T05:38:48;15.30;;;9.50;;
22770;SDS011;11552;50.786;4.332;2022-09-29T05:41:15;17.42;;;9.35;;
22770;SDS011;11552;50.786;4.332;2022-09-29T05:43:47;17.65;;;10.13;;
22770;SDS011;11552;50.786;4.332;2022-09-29T05:46:14;15.13;;;10.23;;
22770;SDS011;11552;50.786;4.332;2022-09-29T05:48:42;16.65;;;9.18;;
22770;SDS011;11552;50.786;4.332;2022-09-29T05:51:08;14.93;;;11.15;;
22770;SDS011;11552;50.786;4.332;2022-09-29T05:53:35;22.67;;;10.38;;
22770;SDS011;11552;50.786;4.332;2022-09-29T05:56:05;15.32;;;9.77;;
22770;SDS011;11552;50.786;4.332;2022-09-29T05:58:32;26.00;;;10.80;;
22770;SDS011;11552;50.786;4.332;2022-09-29T06:00:58;15.50;;;10.77;;
22770;SDS011;11552;50.786;4.332;2022-09-29T06:03:28;15.98;;;10.10;;
22770;SDS011;11552;50.786;4.332;2022-09-29T06:05:54;11.88;;;9.10;;
22770;SDS011;11552;50.786;4.332;2022-09-29T06:08:19;14.52;;;9.55;;
22770;SDS011;11552;50.786;4.332;2022-09-29T06:10:45;14.07;;;10.40;;
22770;SDS011;11552;50.786;4.332;2022-09-29T06:13:11;16.13;;;10.15;;
22770;SDS011;11552;50.786;4.332;2022-09-29T06:15:36;16.58;;;10.15;;
22770;SDS011;11552;50.786;4.332;2022-09-29T06:18:02;15.73;;;9.65;;
22770;SDS011;11552;50.786;4.332;2022-09-29T06:20:28;13.27;;;9.73;;
22770;SDS011;11552;50.786;4.332;2022-09-29T06:22:54;14.85;;;9.88;;
22770;SDS011;11552;50.786;4.332;2022-09-29T06:25:20;15.73;;;10.20;;
22770;SDS011;11552;50.786;4.332;2022-09-29T06:27:47;16.73;;;10.55;;
22770;SDS011;11552;50.786;4.332;2022-09-29T06:30:13;20.77;;;10.60;;
22770;SDS011;11552;50.786;4.332;2022-09-29T06:32:39;12.80;;;9.43;;
22770;SDS011;11552;50.786;4.332;2022-09-29T06:35:05;14.55;;;10.43;;
22770;SDS011;11552;50.786;4.332;2022-09-29T06:38:05;22.38;;;9.15;;
22770;SDS011;11552;50.786;4.332;2022-09-29T06:40:31;20.88;;;11.13;;
22770;SDS011;11552;50.786;4.332;2022-09-29T06:42:56;17.55;;;9.57;;
22770;SDS011;11552;50.786;4.332;2022-09-29T06:45:22;12.20;;;9.50;;
22770;SDS011;11552;50.786;4.332;2022-09-29T06:47:48;17.20;;;10.35;;
22770;SDS011;11552;50.786;4.332;2022-09-29T06:50:13;19.92;;;10.68;;
22770;SDS011;11552;50.786;4.332;2022-09-29T06:52:39;14.32;;;8.98;;
22770;SDS011;11552;50.786;4.332;2022-09-29T06:55:05;13.50;;;9.25;;
22770;SDS011;11552;50.786;4.332;2022-09-29T06:57:31;11.35;;;8.25;;
22770;SDS011;11552;50.786;4.332;2022-09-29T06:59:57;10.55;;;8.85;;
22770;SDS011;11552;50.786;4.332;2022-09-29T07:02:22;11.90;;;8.90;;
22770;SDS011;11552;50.786;4.332;2022-09-29T07:04:48;14.95;;;8.93;;
22770;SDS011;11552;50.786;4.332;2022-09-29T07:07:14;10.52;;;8.85;;
22770;SDS011;11552;50.786;4.332;2022-09-29T07:09:40;12.55;;;8.48;;
22770;SDS011;11552;50.786;4.332;2022-09-29T07:12:06;11.18;;;8.98;;
22770;SDS011;11552;50.786;4.332;2022-09-29T07:14:32;14.23;;;9.05;;
22770;SDS011;11552;50.786;4.332;2022-09-29T07:16:58;12.65;;;8.88;;
22770;SDS011;11552;50.786;4.332;2022-09-29T07:19:24;10.07;;;8.70;;
22770;SDS011;11552;50.786;4.332;2022-09-29T07:21:50;12.98;;;8.43;;
22770;SDS011;11552;50.786;4.332;2022-09-29T07:24:16;12.32;;;8.65;;
22770;SDS011;11552;50.786;4.332;2022-09-29T07:26:42;14.52;;;8.90;;
22770;SDS011;11552;50.786;4.332;2022-09-29T07:29:08;17.45;;;9.82;;
22770;SDS011;11552;50.786;4.332;2022-09-29T07:31:34;12.85;;;8.60;;
22770;SDS011;11552;50.786;4.332;2022-09-29T07:34:00;15.38;;;8.30;;
22770;SDS011;11552;50.786;4.332;2022-09-29T07:36:26;11.65;;;8.82;;
22770;SDS011;11552;50.786;4.332;2022-09-29T07:38:52;16.40;;;8.77;;
22770;SDS011;11552;50.786;4.332;2022-09-29T07:41:18;14.77;;;8.40;;
22770;SDS011;11552;50.786;4.332;2022-09-29T07:43:45;15.27;;;9.02;;
22770;SDS011;11552;50.786;4.332;2022-09-29T07:46:11;14.20;;;8.63;;
22770;SDS011;11552;50.786;4.332;2022-09-29T07:48:37;13.50;;;8.77;;
22770;SDS011;11552;50.786;4.332;2022-09-29T07:51:08;13.27;;;8.85;;
22770;SDS011;11552;50.786;4.332;2022-09-29T07:53:36;14.43;;;8.80;;
22770;SDS011;11552;50.786;4.332;2022-09-29T07:56:03;16.70;;;8.90;;
22770;SDS011;11552;50.786;4.332;2022-09-29T07:58:33;15.48;;;8.50;;
22770;SDS011;11552;50.786;4.332;2022-09-29T08:01:00;15.32;;;7.90;;
22770;SDS011;11552;50.786;4.332;2022-09-29T08:03:26;12.23;;;7.93;;
22770;SDS011;11552;50.786;4.332;2022-09-29T08:05:54;14.00;;;7.32;;
22770;SDS011;11552;50.786;4.332;2022-09-29T08:08:21;10.88;;;7.07;;
22770;SDS011;11552;50.786;4.332;2022-09-29T08:10:47;16.33;;;7.03;;
22770;SDS011;11552;50.786;4.332;2022-09-29T08:13:13;14.95;;;7.32;;
22770;SDS011;11552;50.786;4.332;2022-09-29T08:15:38;22.20;;;9.48;;
22770;SDS011;11552;50.786;4.332;2022-09-29T08:18:04;15.70;;;7.15;;
22770;SDS011;11552;50.786;4.332;2022-09-29T08:20:30;14.05;;;6.72;;
22770;SDS011;11552;50.786;4.332;2022-09-29T08:22:55;9.98;;;6.15;;
22770;SDS011;11552;50.786;4.332;2022-09-29T08:25:22;10.77;;;6.15;;
22770;SDS011;11552;50.786;4.332;2022-09-29T08:27:51;17.95;;;6.88;;
22770;SDS011;11552;50.786;4.332;2022-09-29T08:30:18;10.10;;;5.68;;
22770;SDS011;11552;50.786;4.332;2022-09-29T08:32:49;10.60;;;6.07;;
22770;SDS011;11552;50.786;4.332;2022-09-29T08:35:18;11.45;;;5.95;;
22770;SDS011;11552;50.786;4.332;2022-09-29T08:37:45;11.63;;;5.93;;
22770;SDS011;11552;50.786;4.332;2022-09-29T08:40:10;10.02;;;5.55;;
22770;SDS011;11552;50.786;4.332;2022-09-29T08:42:41;7.75;;;5.95;;
22770;SDS011;11552;50.786;4.332;2022-09-29T08:45:15;11.40;;;6.00;;
22770;SDS011;11552;50.786;4.332;2022-09-29T08:47:52;9.65;;;5.25;;
22770;SDS011;11552;50.786;4.332;2022-09-29T08:50:30;13.65;;;5.70;;
22770;SDS011;11552;50.786;4.332;2022-09-29T08:53:06;15.43;;;6.25;;
22770;SDS011;11552;50.786;4.332;2022-09-29T08:55:38;11.52;;;5.90;;
22770;SDS011;11552;50.786;4.332;2022-09-29T08:58:12;11.27;;;4.93;;
22770;SDS011;11552;50.786;4.332;2022-09-29T09:11:12;9.75;;;3.95;;
22770;SDS011;11552;50.786;4.332;2022-09-29T09:22:18;10.27;;;2.58;;
22770;SDS011;11552;50.786;4.332;2022-09-29T09:25:18;6.47;;;2.95;;
22770;SDS011;11552;50.786;4.332;2022-09-29T09:30:29;4.72;;;2.13;;
22770;SDS011;11552;50.786;4.332;2022-09-29T09:33:02;3.17;;;2.13;;
22770;SDS011;11552;50.786;4.332;2022-09-29T09:38:03;4.18;;;2.50;;
22770;SDS011;11552;50.786;4.332;2022-09-29T09:40:38;4.78;;;2.45;;
22770;SDS011;11552;50.786;4.332;2022-09-29T09:43:16;8.60;;;2.08;;
22770;SDS011;11552;50.786;4.332;2022-09-29T09:45:48;88.32;;;8.85;;
22770;SDS011;11552;50.786;4.332;2022-09-29T09:50:56;3.15;;;1.48;;
22770;SDS011;11552;50.786;4.332;2022-09-29T09:56:34;4.78;;;2.33;;
22770;SDS011;11552;50.786;4.332;2022-09-29T10:02:02;6.00;;;1.60;;
22770;SDS011;11552;50.786;4.332;2022-09-29T10:04:28;8.73;;;2.80;;
22770;SDS011;11552;50.786;4.332;2022-09-29T10:06:54;4.25;;;2.03;;
22770;SDS011;11552;50.786;4.332;2022-09-29T10:09:20;8.98;;;2.20;;
22770;SDS011;11552;50.786;4.332;2022-09-29T10:11:46;5.97;;;2.50;;
22770;SDS011;11552;50.786;4.332;2022-09-29T10:14:18;5.13;;;1.85;;
22770;SDS011;11552;50.786;4.332;2022-09-29T10:22:23;10.52;;;2.42;;
22770;SDS011;11552;50.786;4.332;2022-09-29T10:24:51;3.17;;;1.88;;
22770;SDS011;11552;50.786;4.332;2022-09-29T10:27:21;6.72;;;2.03;;
22770;SDS011;11552;50.786;4.332;2022-09-29T10:29:49;6.75;;;2.22;;
22770;SDS011;11552;50.786;4.332;2022-09-29T10:32:21;5.05;;;2.65;;
22770;SDS011;11552;50.786;4.332;2022-09-29T10:35:02;7.18;;;2.60;;
22770;SDS011;11552;50.786;4.332;2022-09-29T10:37:47;9.10;;;2.40;;
22770;SDS011;11552;50.786;4.332;2022-09-29T10:40:25;9.65;;;2.80;;
22770;SDS011;11552;50.786;4.332;2022-09-29T10:42:51;4.63;;;2.30;;
22770;SDS011;11552;50.786;4.332;2022-09-29T10:45:21;8.13;;;3.33;;
22770;SDS011;11552;50.786;4.332;2022-09-29T10:50:59;8.95;;;2.70;;
22770;SDS011;11552;50.786;4.332;2022-09-29T10:56:17;3.25;;;1.90;;
22770;SDS011;11552;50.786;4.332;2022-09-29T10:58:53;9.98;;;2.33;;
22770;SDS011;11552;50.786;4.332;2022-09-29T11:01:22;6.43;;;2.45;;
22770;SDS011;11552;50.786;4.332;2022-09-29T11:03:54;8.90;;;2.30;;
22770;SDS011;11552;50.786;4.332;2022-09-29T11:06:28;8.90;;;2.42;;
22770;SDS011;11552;50.786;4.332;2022-09-29T11:09:03;6.65;;;2.38;;
22770;SDS011;11552;50.786;4.332;2022-09-29T11:11:35;5.82;;;2.40;;
22770;SDS011;11552;50.786;4.332;2022-09-29T11:14:03;12.30;;;3.80;;
22770;SDS011;11552;50.786;4.332;2022-09-29T11:19:10;16.20;;;4.03;;
22770;SDS011;11552;50.786;4.332;2022-09-29T11:27:12;4.80;;;2.00;;
22770;SDS011;11552;50.786;4.332;2022-09-29T11:32:55;5.28;;;1.90;;
22770;SDS011;11552;50.786;4.332;2022-09-29T11:43:59;8.13;;;1.90;;
22770;SDS011;11552;50.786;4.332;2022-09-29T11:46:40;4.00;;;1.10;;
22770;SDS011;11552;50.786;4.332;2022-09-29T11:58:04;4.53;;;1.58;;
22770;SDS011;11552;50.786;4.332;2022-09-29T12:08:55;4.30;;;1.50;;
22770;SDS011;11552;50.786;4.332;2022-09-29T12:14:32;4.55;;;1.88;;
22770;SDS011;11552;50.786;4.332;2022-09-29T12:17:13;4.15;;;1.60;;
22770;SDS011;11552;50.786;4.332;2022-09-29T12:19:42;4.47;;;1.83;;
22770;SDS011;11552;50.786;4.332;2022-09-29T12:22:10;4.32;;;1.55;;
22770;SDS011;11552;50.786;4.332;2022-09-29T12:24:43;4.97;;;1.92;;
22770;SDS011;11552;50.786;4.332;2022-09-29T12:30:36;2.70;;;1.38;;
22770;SDS011;11552;50.786;4.332;2022-09-29T12:38:24;2.95;;;1.27;;
22770;SDS011;11552;50.786;4.332;2022-09-29T12:43:34;3.78;;;1.30;;
22770;SDS011;11552;50.786;4.332;2022-09-29T12:49:23;3.92;;;1.00;;
22770;SDS011;11552;50.786;4.332;2022-09-29T12:51:58;4.60;;;0.98;;
22770;SDS011;11552;50.786;4.332;2022-09-29T12:56:57;2.95;;;0.90;;
22770;SDS011;11552;50.786;4.332;2022-09-29T13:04:52;3.78;;;0.73;;
22770;SDS011;11552;50.786;4.332;2022-09-29T13:10:22;5.35;;;3.42;;
22770;SDS011;11552;50.786;4.332;2022-09-29T13:13:09;4.50;;;2.35;;
22770;SDS011;11552;50.786;4.332;2022-09-29T13:16:02;8.65;;;5.78;;
22770;SDS011;11552;50.786;4.332;2022-09-29T13:18:44;3.10;;;1.20;;
22770;SDS011;11552;50.786;4.332;2022-09-29T13:21:25;5.45;;;1.38;;
22770;SDS011;11552;50.786;4.332;2022-09-29T13:30:04;4.05;;;2.28;;
22770;SDS011;11552;50.786;4.332;2022-09-29T13:32:42;4.57;;;1.00;;
22770;SDS011;11552;50.786;4.332;2022-09-29T13:35:29;2.13;;;1.20;;
22770;SDS011;11552;50.786;4.332;2022-09-29T13:38:07;5.53;;;2.90;;
22770;SDS011;11552;50.786;4.332;2022-09-29T13:40:41;4.15;;;1.38;;
22770;SDS011;11552;50.786;4.332;2022-09-29T13:46:27;4.03;;;1.33;;
22770;SDS011;11552;50.786;4.332;2022-09-29T13:49:03;2.20;;;0.80;;
22770;SDS011;11552;50.786;4.332;2022-09-29T13:51:46;3.60;;;0.82;;
22770;SDS011;11552;50.786;4.332;2022-09-29T13:54:28;4.90;;;1.33;;
22770;SDS011;11552;50.786;4.332;2022-09-29T13:59:36;5.70;;;1.00;;
22770;SDS011;11552;50.786;4.332;2022-09-29T14:13:00;2.45;;;0.93;;
22770;SDS011;11552;50.786;4.332;2022-09-29T14:15:32;5.03;;;1.27;;
22770;SDS011;11552;50.786;4.332;2022-09-29T14:18:02;2.83;;;0.90;;
22770;SDS011;11552;50.786;4.332;2022-09-29T14:20:35;2.70;;;0.90;;
22770;SDS011;11552;50.786;4.332;2022-09-29T14:23:02;4.80;;;0.88;;
22770;SDS011;11552;50.786;4.332;2022-09-29T14:32:58;3.90;;;1.42;;
22770;SDS011;11552;50.786;4.332;2022-09-29T14:35:30;4.22;;;1.13;;
22770;SDS011;11552;50.786;4.332;2022-09-29T14:38:07;5.95;;;0.80;;
22770;SDS011;11552;50.786;4.332;2022-09-29T14:43:47;2.30;;;1.05;;
22770;SDS011;11552;50.786;4.332;2022-09-29T14:54:50;3.13;;;1.30;;
22770;SDS011;11552;50.786;4.332;2022-09-29T15:00:31;2.35;;;1.20;;
22770;SDS011;11552;50.786;4.332;2022-09-29T15:02:58;3.22;;;1.08;;
22770;SDS011;11552;50.786;4.332;2022-09-29T15:05:31;3.55;;;1.20;;
22770;SDS011;11552;50.786;4.332;2022-09-29T15:07:59;3.97;;;1.35;;
22770;SDS011;11552;50.786;4.332;2022-09-29T15:10:28;4.10;;;1.38;;
22770;SDS011;11552;50.786;4.332;2022-09-29T15:15:39;3.33;;;0.98;;
22770;SDS011;11552;50.786;4.332;2022-09-29T15:18:29;2.72;;;1.13;;
22770;SDS011;11552;50.786;4.332;2022-09-29T15:21:38;4.03;;;1.67;;
22770;SDS011;11552;50.786;4.332;2022-09-29T15:26:29;9.02;;;1.70;;
22770;SDS011;11552;50.786;4.332;2022-09-29T15:28:57;3.53;;;0.98;;
22770;SDS011;11552;50.786;4.332;2022-09-29T15:31:29;4.60;;;1.20;;
22770;SDS011;11552;50.786;4.332;2022-09-29T15:34:01;5.80;;;0.98;;
22770;SDS011;11552;50.786;4.332;2022-09-29T15:36:32;5.75;;;1.30;;
22770;SDS011;11552;50.786;4.332;2022-09-29T15:41:27;9.07;;;2.03;;
22770;SDS011;11552;50.786;4.332;2022-09-29T15:43:59;5.05;;;1.63;;
22770;SDS011;11552;50.786;4.332;2022-09-29T15:49:19;4.10;;;1.60;;
22770;SDS011;11552;50.786;4.332;2022-09-29T15:52:02;3.78;;;1.27;;
22770;SDS011;11552;50.786;4.332;2022-09-29T15:54:38;5.57;;;1.40;;
22770;SDS011;11552;50.786;4.332;2022-09-29T15:57:26;5.15;;;1.73;;
22770;SDS011;11552;50.786;4.332;2022-09-29T16:02:45;6.25;;;1.33;;
22770;SDS011;11552;50.786;4.332;2022-09-29T16:05:13;5.15;;;1.33;;
22770;SDS011;11552;50.786;4.332;2022-09-29T16:08:16;5.38;;;1.63;;
22770;SDS011;11552;50.786;4.332;2022-09-29T16:10:38;3.33;;;1.55;;
22770;SDS011;11552;50.786;4.332;2022-09-29T16:13:14;3.85;;;1.60;;
22770;SDS011;11552;50.786;4.332;2022-09-29T16:15:44;6.35;;;2.20;;
22770;SDS011;11552;50.786;4.332;2022-09-29T16:18:18;4.32;;;1.90;;
22770;SDS011;11552;50.786;4.332;2022-09-29T16:20:47;5.13;;;1.75;;
22770;SDS011;11552;50.786;4.332;2022-09-29T16:25:46;5.25;;;1.23;;
22770;SDS011;11552;50.786;4.332;2022-09-29T16:28:32;4.15;;;1.40;;
22770;SDS011;11552;50.786;4.332;2022-09-29T16:31:16;4.68;;;1.70;;
22770;SDS011;11552;50.786;4.332;2022-09-29T16:33:51;5.07;;;1.75;;
22770;SDS011;11552;50.786;4.332;2022-09-29T16:36:22;4.22;;;1.85;;
22770;SDS011;11552;50.786;4.332;2022-09-29T16:39:04;4.55;;;2.03;;
22770;SDS011;11552;50.786;4.332;2022-09-29T16:41:31;4.82;;;2.53;;
22770;SDS011;11552;50.786;4.332;2022-09-29T16:46:43;4.97;;;2.83;;
22770;SDS011;11552;50.786;4.332;2022-09-29T16:52:00;8.20;;;2.60;;
22770;SDS011;11552;50.786;4.332;2022-09-29T16:54:40;8.88;;;2.55;;
22770;SDS011;11552;50.786;4.332;2022-09-29T16:57:10;8.63;;;3.47;;
22770;SDS011;11552;50.786;4.332;2022-09-29T16:59:51;8.27;;;3.33;;
22770;SDS011;11552;50.786;4.332;2022-09-29T17:02:21;6.35;;;3.05;;
22770;SDS011;11552;50.786;4.332;2022-09-29T17:04:48;6.43;;;3.33;;
22770;SDS011;11552;50.786;4.332;2022-09-29T17:07:15;5.18;;;2.92;;
22770;SDS011;11552;50.786;4.332;2022-09-29T17:09:46;7.47;;;3.20;;
22770;SDS011;11552;50.786;4.332;2022-09-29T17:12:19;5.72;;;2.90;;
22770;SDS011;11552;50.786;4.332;2022-09-29T17:14:44;7.07;;;2.70;;
22770;SDS011;11552;50.786;4.332;2022-09-29T17:17:25;10.93;;;5.88;;
22770;SDS011;11552;50.786;4.332;2022-09-29T17:19:52;9.70;;;5.25;;
22770;SDS011;11552;50.786;4.332;2022-09-29T17:24:58;17.20;;;8.32;;
22770;SDS011;11552;50.786;4.332;2022-09-29T17:27:26;27.63;;;18.38;;
22770;SDS011;11552;50.786;4.332;2022-09-29T17:30:11;20.30;;;12.75;;
22770;SDS011;11552;50.786;4.332;2022-09-29T17:32:42;15.43;;;10.13;;
22770;SDS011;11552;50.786;4.332;2022-09-29T17:35:10;10.77;;;5.45;;
22770;SDS011;11552;50.786;4.332;2022-09-29T17:37:43;15.88;;;6.15;;
22770;SDS011;11552;50.786;4.332;2022-09-29T17:42:43;20.45;;;13.80;;
22770;SDS011;11552;50.786;4.332;2022-09-29T17:45:11;16.70;;;12.98;;
22770;SDS011;11552;50.786;4.332;2022-09-29T17:47:40;8.68;;;5.05;;
22770;SDS011;11552;50.786;4.332;2022-09-29T17:50:23;12.23;;;7.13;;
22770;SDS011;11552;50.786;4.332;2022-09-29T17:53:08;13.90;;;6.10;;
22770;SDS011;11552;50.786;4.332;2022-09-29T17:55:35;16.08;;;9.38;;
22770;SDS011;11552;50.786;4.332;2022-09-29T17:58:01;12.63;;;8.07;;
22770;SDS011;11552;50.786;4.332;2022-09-29T18:00:32;17.45;;;13.88;;
22770;SDS011;11552;50.786;4.332;2022-09-29T18:03:02;29.40;;;23.83;;
22770;SDS011;11552;50.786;4.332;2022-09-29T18:05:33;15.45;;;8.55;;
22770;SDS011;11552;50.786;4.332;2022-09-29T18:08:01;11.75;;;6.18;;
22770;SDS011;11552;50.786;4.332;2022-09-29T18:10:29;10.75;;;5.82;;
22770;SDS011;11552;50.786;4.332;2022-09-29T18:13:07;12.57;;;6.50;;
22770;SDS011;11552;50.786;4.332;2022-09-29T18:15:33;11.25;;;7.50;;
22770;SDS011;11552;50.786;4.332;2022-09-29T18:18:00;11.57;;;8.77;;
22770;SDS011;11552;50.786;4.332;2022-09-29T18:20:28;8.55;;;6.65;;
22770;SDS011;11552;50.786;4.332;2022-09-29T18:22:55;13.32;;;7.78;;
22770;SDS011;11552;50.786;4.332;2022-09-29T18:25:23;15.13;;;9.48;;
22770;SDS011;11552;50.786;4.332;2022-09-29T18:27:50;11.85;;;6.78;;
22770;SDS011;11552;50.786;4.332;2022-09-29T18:30:20;11.23;;;6.65;;
22770;SDS011;11552;50.786;4.332;2022-09-29T18:32:48;9.20;;;6.65;;
22770;SDS011;11552;50.786;4.332;2022-09-29T18:35:17;9.98;;;6.57;;